createdAt,value
2023-01-19T00:00:51.969Z,-0.62
2023-01-19T00:03:18.778Z,-0.57
2023-01-19T00:05:46.528Z,-0.47
2023-01-19T00:08:16.325Z,-0.42
2023-01-19T00:10:48.529Z,-0.41
2023-01-19T00:13:15.678Z,-0.37
2023-01-19T00:15:43.314Z,-0.43
2023-01-19T00:18:11.166Z,-0.48
2023-01-19T00:20:39.175Z,-0.55
2023-01-19T00:23:07.891Z,-0.66
2023-01-19T00:25:35.660Z,-0.84
2023-01-19T00:28:02.522Z,-0.87
2023-01-19T00:30:29.410Z,-0.76
2023-01-19T00:32:56.801Z,-0.66
2023-01-19T00:35:23.724Z,-0.65
2023-01-19T00:37:51.093Z,-0.80
2023-01-19T00:40:18.145Z,-0.90
2023-01-19T00:42:45.425Z,-0.87
2023-01-19T00:45:15.204Z,-0.82
2023-01-19T00:47:42.280Z,-0.87
2023-01-19T00:50:13.348Z,-0.87
2023-01-19T00:52:41.607Z,-0.84
2023-01-19T00:55:13.583Z,-0.94
2023-01-19T00:57:41.669Z,-0.92
2023-01-19T01:00:14.186Z,-1.04
2023-01-19T01:02:43.049Z,-0.98
2023-01-19T01:05:11.011Z,-0.97
2023-01-19T01:07:40.653Z,-0.97
2023-01-19T01:10:10.787Z,-0.97
2023-01-19T01:12:37.955Z,-1.09
2023-01-19T01:15:09.410Z,-1.20
2023-01-19T01:17:36.713Z,-1.11
2023-01-19T01:20:04.928Z,-1.03
2023-01-19T01:22:31.859Z,-0.95
2023-01-19T01:24:58.909Z,-0.87
2023-01-19T01:27:25.661Z,-0.94
2023-01-19T01:29:52.349Z,-0.95
2023-01-19T01:32:19.090Z,-0.90
2023-01-19T01:34:45.856Z,-0.92
2023-01-19T01:37:12.579Z,-0.96
2023-01-19T01:39:39.263Z,-0.94
2023-01-19T01:42:17.487Z,-1.05
2023-01-19T01:44:59.207Z,-1.17
2023-01-19T01:47:44.325Z,-1.21
2023-01-19T01:50:20.519Z,-1.19
2023-01-19T01:53:12.119Z,-1.33
2023-01-19T01:55:43.567Z,-1.39
2023-01-19T01:58:11.314Z,-1.39
2023-01-19T02:00:58.695Z,-1.38
2023-01-19T02:03:26.952Z,-1.51
2023-01-19T02:05:57.660Z,-1.59
2023-01-19T02:09:05.022Z,-1.57
2023-01-19T02:11:51.629Z,-1.55
2023-01-19T02:14:19.032Z,-1.39
2023-01-19T02:16:46.708Z,-1.37
2023-01-19T02:19:20.551Z,-1.24
2023-01-19T02:22:11.666Z,-1.23
2023-01-19T02:24:38.533Z,-1.15
2023-01-19T02:27:07.080Z,-1.32
2023-01-19T02:29:34.879Z,-1.36
2023-01-19T02:32:03.057Z,-1.40
2023-01-19T02:34:30.278Z,-1.50
2023-01-19T02:37:06.643Z,-1.48
2023-01-19T02:39:39.148Z,-1.43
2023-01-19T02:42:34.876Z,-1.50
2023-01-19T02:45:06.677Z,-1.55
2023-01-19T02:47:42.994Z,-1.68
2023-01-19T02:50:34.137Z,-1.67
2023-01-19T02:53:12.434Z,-1.65
2023-01-19T02:55:40.290Z,-1.71
2023-01-19T02:58:49.197Z,-1.75
2023-01-19T03:01:51.508Z,-1.76
2023-01-19T03:04:27.505Z,-1.79
2023-01-19T03:07:12.844Z,-1.86
2023-01-19T03:10:32.422Z,-1.78
2023-01-19T03:13:14.525Z,-1.80
2023-01-19T03:15:45.575Z,-1.69
2023-01-19T03:18:18.329Z,-1.73
2023-01-19T03:20:45.564Z,-1.67
2023-01-19T03:23:15.506Z,-1.67
2023-01-19T03:25:45.523Z,-1.75
2023-01-19T03:28:14.561Z,-1.68
2023-01-19T03:30:46.609Z,-1.64
2023-01-19T03:33:26.037Z,-1.62
2023-01-19T03:35:58.232Z,-1.64
2023-01-19T03:38:27.172Z,-1.67
2023-01-19T03:40:58.658Z,-1.66
2023-01-19T03:43:27.099Z,-1.72
2023-01-19T03:45:56.132Z,-1.73
2023-01-19T03:48:23.707Z,-1.63
2023-01-19T03:50:52.369Z,-1.66
2023-01-19T03:53:20.475Z,-1.72
2023-01-19T03:55:54.142Z,-1.72
2023-01-19T03:58:22.128Z,-1.75
2023-01-19T04:00:48.939Z,-1.78
2023-01-19T04:03:17.516Z,-1.81
2023-01-19T04:05:44.862Z,-1.71
2023-01-19T04:08:12.164Z,-1.70
2023-01-19T04:10:39.442Z,-1.72
2023-01-19T04:13:06.473Z,-1.67
2023-01-19T04:15:33.228Z,-1.59
2023-01-19T04:18:01.101Z,-1.56
2023-01-19T04:20:28.433Z,-1.54
2023-01-19T04:22:59.361Z,-1.49
2023-01-19T04:25:27.855Z,-1.40
2023-01-19T04:27:55.615Z,-1.42
2023-01-19T04:30:22.637Z,-1.46
2023-01-19T04:32:49.578Z,-1.52
2023-01-19T04:35:16.951Z,-1.51
2023-01-19T04:37:44.929Z,-1.49
2023-01-19T04:40:11.985Z,-1.40
2023-01-19T04:42:38.999Z,-1.42
2023-01-19T04:45:06.203Z,-1.41
2023-01-19T04:47:32.945Z,-1.39
2023-01-19T04:50:02.309Z,-1.52
2023-01-19T04:52:36.562Z,-1.55
2023-01-19T04:55:06.059Z,-1.48
2023-01-19T04:57:32.869Z,-1.48
2023-01-19T04:59:59.795Z,-1.56
2023-01-19T05:02:27.062Z,-1.70
2023-01-19T05:04:54.299Z,-1.72
2023-01-19T05:07:21.064Z,-1.69
2023-01-19T05:09:47.779Z,-1.64
2023-01-19T05:12:14.649Z,-1.58
2023-01-19T05:14:42.512Z,-1.53
2023-01-19T05:17:09.713Z,-1.50
2023-01-19T05:19:36.475Z,-1.54
2023-01-19T05:22:04.562Z,-1.53
2023-01-19T05:24:31.918Z,-1.49
2023-01-19T05:26:58.939Z,-1.44
2023-01-19T05:29:25.787Z,-1.43
2023-01-19T05:31:53.317Z,-1.53
2023-01-19T05:34:20.281Z,-1.58
2023-01-19T05:36:47.360Z,-1.68
2023-01-19T05:39:16.193Z,-1.67
2023-01-19T05:41:45.371Z,-1.72
2023-01-19T05:44:12.837Z,-1.66
2023-01-19T05:46:40.664Z,-1.66
2023-01-19T05:49:07.809Z,-1.65
2023-01-19T05:51:37.941Z,-1.63
2023-01-19T05:54:06.135Z,-1.58
2023-01-19T05:56:33.375Z,-1.52
2023-01-19T05:59:00.570Z,-1.49
2023-01-19T06:01:27.696Z,-1.49
2023-01-19T06:03:55.076Z,-1.45
2023-01-19T06:06:21.829Z,-1.44
2023-01-19T06:08:48.630Z,-1.47
2023-01-19T06:11:15.876Z,-1.51
2023-01-19T06:13:42.743Z,-1.48
2023-01-19T06:16:10.684Z,-1.48
2023-01-19T06:18:37.481Z,-1.49
2023-01-19T06:21:09.320Z,-1.51
2023-01-19T06:23:36.798Z,-1.50
2023-01-19T06:26:04.014Z,-1.46
2023-01-19T06:28:30.966Z,-1.53
2023-01-19T06:30:58.062Z,-1.59
2023-01-19T06:33:25.993Z,-1.56
2023-01-19T06:35:52.881Z,-1.57
2023-01-19T06:38:19.974Z,-1.56
2023-01-19T06:40:53.695Z,-1.57
2023-01-19T06:43:20.535Z,-1.60
2023-01-19T06:45:47.740Z,-1.60
2023-01-19T06:48:14.574Z,-1.57
2023-01-19T06:50:41.519Z,-1.53
2023-01-19T06:53:08.526Z,-1.52
2023-01-19T06:55:36.390Z,-1.53
2023-01-19T06:58:03.341Z,-1.49
2023-01-19T07:00:30.080Z,-1.46
2023-01-19T07:02:56.825Z,-1.42
2023-01-19T07:05:24.369Z,-1.35
2023-01-19T07:07:56.004Z,-1.23
2023-01-19T07:10:24.167Z,-1.21
2023-01-19T07:12:50.940Z,-1.26
2023-01-19T07:15:22.494Z,-1.24
2023-01-19T07:17:49.570Z,-1.35
2023-01-19T07:20:17.416Z,-1.40
2023-01-19T07:22:46.469Z,-1.41
2023-01-19T07:25:14.157Z,-1.35
2023-01-19T07:27:41.071Z,-1.38
2023-01-19T07:30:08.732Z,-1.38
2023-01-19T07:32:35.982Z,-1.38
2023-01-19T07:35:02.893Z,-1.44
2023-01-19T07:37:29.688Z,-1.46
2023-01-19T07:39:56.395Z,-1.50
2023-01-19T07:42:23.132Z,-1.37
2023-01-19T07:44:49.837Z,-1.35
2023-01-19T07:47:16.605Z,-1.38
2023-01-19T07:49:43.462Z,-1.31
2023-01-19T07:52:10.544Z,-1.27
2023-01-19T07:54:37.994Z,-1.20
2023-01-19T07:57:04.850Z,-1.15
2023-01-19T07:59:32.354Z,-1.09
2023-01-19T08:01:59.694Z,-1.03
2023-01-19T08:04:27.201Z,-1.02
2023-01-19T08:06:55.270Z,-1.02
2023-01-19T08:09:22.098Z,-1.04
2023-01-19T08:11:48.815Z,-1.01
2023-01-19T08:14:15.593Z,-0.97
2023-01-19T08:16:42.360Z,-0.99
2023-01-19T08:19:09.113Z,-0.98
2023-01-19T08:21:36.480Z,-1.01
2023-01-19T08:24:03.319Z,-1.00
2023-01-19T08:26:33.570Z,-0.93
2023-01-19T08:29:03.132Z,-0.81
2023-01-19T08:31:30.563Z,-0.74
2023-01-19T08:33:57.657Z,-0.67
2023-01-19T08:36:25.112Z,-0.58
2023-01-19T08:38:52.287Z,-0.56
2023-01-19T08:41:19.129Z,-0.62
2023-01-19T08:43:46.249Z,-0.58
2023-01-19T08:46:16.996Z,-0.61
2023-01-19T08:48:45.229Z,-0.63
2023-01-19T08:51:12.620Z,-0.60
2023-01-19T08:53:39.847Z,-0.59
2023-01-19T08:56:12.237Z,-0.48
2023-01-19T08:58:40.728Z,-0.41
2023-01-19T09:01:08.850Z,-0.34
2023-01-19T09:03:36.951Z,-0.20
2023-01-19T09:06:07.550Z,-0.11
2023-01-19T09:08:34.512Z,-0.01
2023-01-19T09:11:01.405Z,0.10
2023-01-19T09:13:28.258Z,0.23
2023-01-19T09:15:54.962Z,0.24
2023-01-19T09:18:24.866Z,0.21
2023-01-19T09:20:51.719Z,0.28
2023-01-19T09:23:20.429Z,0.25
2023-01-19T09:25:47.969Z,0.28
2023-01-19T09:28:17.545Z,0.27
2023-01-19T09:30:45.051Z,0.30
2023-01-19T09:33:15.151Z,0.35
2023-01-19T09:35:43.263Z,0.46
2023-01-19T09:38:10.506Z,0.58
2023-01-19T09:40:42.329Z,0.68
2023-01-19T09:43:28.480Z,0.67
2023-01-19T09:45:58.673Z,0.83
2023-01-19T09:48:45.656Z,1.02
2023-01-19T09:51:17.556Z,1.00
2023-01-19T09:54:16.811Z,0.90
2023-01-19T09:56:45.264Z,0.85
2023-01-19T09:59:25.441Z,0.83
2023-01-19T10:02:29.752Z,0.82
2023-01-19T10:06:28.450Z,1.11
2023-01-19T10:09:07.515Z,1.38
2023-01-19T10:11:53.794Z,1.64
2023-01-19T10:14:52.582Z,1.96
2023-01-19T10:17:38.849Z,2.32
2023-01-19T10:20:14.929Z,2.52
2023-01-19T10:22:43.327Z,2.52
2023-01-19T10:25:18.673Z,2.36
2023-01-19T10:27:46.620Z,2.42
2023-01-19T10:30:26.134Z,2.43
2023-01-19T10:32:53.317Z,2.40
2023-01-19T10:35:25.011Z,2.46
2023-01-19T10:38:01.516Z,2.52
2023-01-19T10:40:47.936Z,2.78
2023-01-19T10:43:37.722Z,2.98
2023-01-19T10:46:17.762Z,3.14
2023-01-19T10:48:48.864Z,3.22
2023-01-19T10:51:16.353Z,3.17
2023-01-19T10:53:53.987Z,3.07
2023-01-19T10:56:28.178Z,2.97
2023-01-19T10:58:55.256Z,2.88
2023-01-19T11:01:25.126Z,2.80
2023-01-19T11:03:53.708Z,2.75
2023-01-19T11:06:27.522Z,2.74
2023-01-19T11:09:11.540Z,2.75
2023-01-19T11:11:48.844Z,2.65
2023-01-19T11:14:20.118Z,2.62
2023-01-19T11:16:49.698Z,2.56
2023-01-19T11:19:25.545Z,2.45
2023-01-19T11:21:53.466Z,2.40
2023-01-19T11:24:20.655Z,2.32
2023-01-19T11:26:54.446Z,2.24
2023-01-19T11:29:24.111Z,2.17
2023-01-19T11:31:52.354Z,2.09
2023-01-19T11:34:32.805Z,2.00
2023-01-19T11:37:05.961Z,1.92
2023-01-19T11:39:46.760Z,1.88
2023-01-19T11:42:14.847Z,1.90
2023-01-19T11:44:52.855Z,1.90
2023-01-19T11:47:30.389Z,1.90
2023-01-19T11:50:02.422Z,2.00
2023-01-19T11:52:43.225Z,2.03
2023-01-19T11:55:22.946Z,1.98
2023-01-19T11:57:54.204Z,1.92
2023-01-19T12:00:29.081Z,1.85
2023-01-19T12:03:04.509Z,1.85
2023-01-19T12:05:34.477Z,1.86
2023-01-19T12:08:07.031Z,1.83
2023-01-19T12:10:41.535Z,1.80
2023-01-19T12:13:25.305Z,1.81
2023-01-19T12:16:01.317Z,1.85
2023-01-19T12:18:40.959Z,1.85
2023-01-19T12:21:07.863Z,1.91
2023-01-19T12:23:48.932Z,2.00
2023-01-19T12:26:28.919Z,2.06
2023-01-19T12:29:01.356Z,2.18
2023-01-19T12:31:28.385Z,2.25
2023-01-19T12:33:55.697Z,2.30
2023-01-19T12:36:40.725Z,2.32
2023-01-19T12:39:08.437Z,2.28
2023-01-19T12:41:37.650Z,2.32
2023-01-19T12:44:19.272Z,2.49
2023-01-19T12:47:00.104Z,2.61
2023-01-19T12:49:29.591Z,2.66
2023-01-19T12:52:26.707Z,2.70
2023-01-19T12:55:06.689Z,2.65
2023-01-19T12:57:58.723Z,2.74
2023-01-19T13:00:25.487Z,2.77
2023-01-19T13:02:59.552Z,2.72
2023-01-19T13:05:33.571Z,2.59
2023-01-19T13:08:14.794Z,2.51
2023-01-19T13:11:02.066Z,2.51
2023-01-19T13:13:32.627Z,2.45
2023-01-19T13:16:19.443Z,2.45
2023-01-19T13:18:47.839Z,2.52
2023-01-19T13:21:27.083Z,2.45
2023-01-19T13:23:59.936Z,2.40
2023-01-19T13:26:49.908Z,2.34
2023-01-19T13:29:26.593Z,2.32
2023-01-19T13:31:55.385Z,2.28
2023-01-19T13:34:27.860Z,2.24
2023-01-19T13:36:59.143Z,2.20
2023-01-19T13:39:37.725Z,2.18
2023-01-19T13:42:09.015Z,2.17
2023-01-19T13:44:42.049Z,2.27
2023-01-19T13:47:18.223Z,2.30
2023-01-19T13:49:48.495Z,2.28
2023-01-19T13:52:23.062Z,2.22
2023-01-19T13:54:55.762Z,2.14
2023-01-19T13:57:22.666Z,2.08
2023-01-19T14:00:08.415Z,2.09
2023-01-19T14:02:35.555Z,2.09
2023-01-19T14:05:27.095Z,2.14
2023-01-19T14:08:15.336Z,2.22
2023-01-19T14:10:48.821Z,2.26
2023-01-19T14:13:16.048Z,2.30
2023-01-19T14:15:44.122Z,2.34
2023-01-19T14:18:14.346Z,2.49
2023-01-19T14:21:03.002Z,2.50
2023-01-19T14:23:49.398Z,2.49
2023-01-19T14:26:38.301Z,2.36
2023-01-19T14:29:29.027Z,2.26
2023-01-19T14:32:21.268Z,2.14
2023-01-19T14:35:12.449Z,2.14
2023-01-19T14:37:49.202Z,2.18
2023-01-19T14:40:21.258Z,2.22
2023-01-19T14:43:06.484Z,2.18
2023-01-19T14:45:40.383Z,2.15
2023-01-19T14:48:18.671Z,2.15
2023-01-19T14:51:02.076Z,2.12
2023-01-19T14:53:36.527Z,2.12
2023-01-19T14:56:05.350Z,2.07
2023-01-19T14:58:36.302Z,2.06
2023-01-19T15:01:04.527Z,1.99
2023-01-19T15:03:43.690Z,1.95
2023-01-19T15:06:23.092Z,2.09
2023-01-19T15:08:53.233Z,2.17
2023-01-19T15:11:32.838Z,2.26
2023-01-19T15:14:00.264Z,2.24
2023-01-19T15:16:29.892Z,2.15
2023-01-19T15:18:56.740Z,2.11
2023-01-19T15:21:26.284Z,2.04
2023-01-19T15:23:54.325Z,2.02
2023-01-19T15:26:24.286Z,2.01
2023-01-19T15:28:51.414Z,2.15
2023-01-19T15:31:22.656Z,2.14
2023-01-19T15:33:50.729Z,2.14
2023-01-19T15:36:20.271Z,2.12
2023-01-19T15:38:47.982Z,2.06
2023-01-19T15:41:26.958Z,2.02
2023-01-19T15:43:56.089Z,2.00
2023-01-19T15:46:25.179Z,2.02
2023-01-19T15:48:53.694Z,2.09
2023-01-19T15:51:22.976Z,2.10
2023-01-19T15:53:50.243Z,1.99
2023-01-19T15:56:21.175Z,1.93
2023-01-19T15:58:48.011Z,1.92
2023-01-19T16:01:18.529Z,1.89
2023-01-19T16:03:46.503Z,1.90
2023-01-19T16:06:13.955Z,1.88
2023-01-19T16:08:41.108Z,1.79
2023-01-19T16:11:10.913Z,1.70
2023-01-19T16:13:38.432Z,1.69
2023-01-19T16:16:13.711Z,1.57
2023-01-19T16:18:40.523Z,1.43
2023-01-19T16:21:07.290Z,1.35
2023-01-19T16:23:39.534Z,1.29
2023-01-19T16:26:28.574Z,1.17
2023-01-19T16:29:00.416Z,1.15
2023-01-19T16:31:27.988Z,1.04
2023-01-19T16:33:54.768Z,1.04
2023-01-19T16:36:26.784Z,1.09
2023-01-19T16:38:54.178Z,1.08
2023-01-19T16:41:21.270Z,1.06
2023-01-19T16:43:53.381Z,0.91
2023-01-19T16:46:26.435Z,0.89
2023-01-19T16:48:53.753Z,0.93
2023-01-19T16:51:20.515Z,0.91
2023-01-19T16:53:50.327Z,0.96
2023-01-19T16:56:17.486Z,0.86
2023-01-19T16:58:44.815Z,0.81
2023-01-19T17:01:13.120Z,0.84
2023-01-19T17:03:40.997Z,0.79
2023-01-19T17:06:09.605Z,0.71
2023-01-19T17:08:37.607Z,0.67
2023-01-19T17:11:16.957Z,0.61
2023-01-19T17:13:43.884Z,0.57
2023-01-19T17:16:10.971Z,0.53
2023-01-19T17:18:38.031Z,0.47
2023-01-19T17:21:07.940Z,0.36
2023-01-19T17:23:36.479Z,0.39
2023-01-19T17:26:04.541Z,0.38
2023-01-19T17:28:31.345Z,0.37
2023-01-19T17:31:07.010Z,0.45
2023-01-19T17:33:35.493Z,0.41
2023-01-19T17:36:12.887Z,0.39
2023-01-19T17:38:40.631Z,0.29
2023-01-19T17:41:19.339Z,0.19
2023-01-19T17:43:47.036Z,0.15
2023-01-19T17:46:14.247Z,0.23
2023-01-19T17:48:41.616Z,0.21
2023-01-19T17:51:17.050Z,0.30
2023-01-19T17:53:43.823Z,0.18
2023-01-19T17:56:13.946Z,0.08
2023-01-19T17:58:41.341Z,0.10
2023-01-19T18:01:39.742Z,0.01
2023-01-19T18:04:08.288Z,0.05
2023-01-19T18:06:35.324Z,0.05
2023-01-19T18:09:02.684Z,-0.07
2023-01-19T18:11:29.616Z,-0.06
2023-01-19T18:13:56.548Z,-0.06
2023-01-19T18:16:25.532Z,-0.03
2023-01-19T18:18:54.063Z,-0.02
2023-01-19T18:21:21.986Z,0.01
2023-01-19T18:23:50.199Z,-0.07
2023-01-19T18:26:22.149Z,-0.05
2023-01-19T18:28:49.831Z,-0.02
2023-01-19T18:31:23.590Z,-0.10
2023-01-19T18:33:50.797Z,-0.11
2023-01-19T18:36:17.807Z,-0.10
2023-01-19T18:38:45.238Z,-0.11
2023-01-19T18:41:16.366Z,-0.09
2023-01-19T18:43:44.916Z,-0.11
2023-01-19T18:46:11.722Z,-0.13
2023-01-19T18:48:39.213Z,-0.17
2023-01-19T18:51:14.151Z,-0.18
2023-01-19T18:53:43.981Z,-0.20
2023-01-19T18:56:12.868Z,-0.26
2023-01-19T18:58:40.322Z,-0.33
2023-01-19T19:01:25.853Z,-0.49
2023-01-19T19:03:53.804Z,-0.52
2023-01-19T19:06:21.628Z,-0.55
2023-01-19T19:08:50.934Z,-0.56
2023-01-19T19:11:19.206Z,-0.51
2023-01-19T19:13:46.277Z,-0.49
2023-01-19T19:16:13.920Z,-0.43
2023-01-19T19:18:40.788Z,-0.38
2023-01-19T19:21:12.382Z,-0.36
2023-01-19T19:23:39.141Z,-0.34
2023-01-19T19:26:09.503Z,-0.44
2023-01-19T19:28:38.184Z,-0.49
2023-01-19T19:31:17.949Z,-0.47
2023-01-19T19:33:44.806Z,-0.46
2023-01-19T19:36:12.511Z,-0.49
2023-01-19T19:38:44.271Z,-0.49
2023-01-19T19:41:13.613Z,-0.43
2023-01-19T19:43:40.707Z,-0.47
2023-01-19T19:46:10.721Z,-0.64
2023-01-19T19:48:39.375Z,-0.68
2023-01-19T19:51:19.226Z,-0.58
2023-01-19T19:53:50.905Z,-0.48
2023-01-19T19:56:20.887Z,-0.45
2023-01-19T19:58:48.044Z,-0.60
2023-01-19T20:01:26.753Z,-0.56
2023-01-19T20:03:55.804Z,-0.40
2023-01-19T20:06:24.804Z,-0.36
2023-01-19T20:08:53.671Z,-0.33
2023-01-19T20:11:23.083Z,-0.36
2023-01-19T20:13:50.697Z,-0.38
2023-01-19T20:16:20.874Z,-0.45
2023-01-19T20:18:53.854Z,-0.39
2023-01-19T20:21:22.317Z,-0.34
2023-01-19T20:23:50.725Z,-0.48
2023-01-19T20:26:20.303Z,-0.59
2023-01-19T20:28:47.677Z,-0.49
2023-01-19T20:31:22.077Z,-0.39
2023-01-19T20:33:52.737Z,-0.46
2023-01-19T20:36:19.711Z,-0.43
2023-01-19T20:38:48.794Z,-0.43
2023-01-19T20:41:15.566Z,-0.41
2023-01-19T20:43:42.738Z,-0.35
2023-01-19T20:46:10.258Z,-0.34
2023-01-19T20:48:39.291Z,-0.35
2023-01-19T20:51:11.937Z,-0.31
2023-01-19T20:53:40.787Z,-0.26
2023-01-19T20:56:12.043Z,-0.22
2023-01-19T20:58:39.549Z,-0.31
2023-01-19T21:01:20.839Z,-0.35
2023-01-19T21:03:47.848Z,-0.37
2023-01-19T21:06:15.242Z,-0.31
2023-01-19T21:08:42.458Z,-0.34
2023-01-19T21:11:10.615Z,-0.32
2023-01-19T21:13:38.188Z,-0.33
2023-01-19T21:16:05.535Z,-0.35
2023-01-19T21:18:33.300Z,-0.40
2023-01-19T21:21:00.197Z,-0.38
2023-01-19T21:23:28.363Z,-0.32
2023-01-19T21:25:57.769Z,-0.26
2023-01-19T21:28:25.979Z,-0.24
2023-01-19T21:30:53.737Z,-0.28
2023-01-19T21:33:22.177Z,-0.29
2023-01-19T21:35:54.503Z,-0.26
2023-01-19T21:38:22.424Z,-0.20
2023-01-19T21:40:50.303Z,-0.18
2023-01-19T21:43:19.207Z,-0.19
2023-01-19T21:45:47.320Z,-0.18
2023-01-19T21:48:15.013Z,-0.23
2023-01-19T21:50:41.838Z,-0.31
2023-01-19T21:53:11.187Z,-0.34
2023-01-19T21:55:38.508Z,-0.34
2023-01-19T21:58:05.354Z,-0.36
2023-01-19T22:00:32.357Z,-0.37
2023-01-19T22:03:04.087Z,-0.35
2023-01-19T22:05:36.864Z,-0.33
2023-01-19T22:08:06.143Z,-0.29
2023-01-19T22:10:36.043Z,-0.24
2023-01-19T22:13:03.210Z,-0.27
2023-01-19T22:15:31.263Z,-0.23
2023-01-19T22:17:57.998Z,-0.17
2023-01-19T22:20:24.827Z,-0.20
2023-01-19T22:22:51.563Z,-0.17
2023-01-19T22:25:21.911Z,-0.11
2023-01-19T22:27:48.639Z,-0.13
2023-01-19T22:30:15.704Z,-0.16
2023-01-19T22:32:42.455Z,-0.16
2023-01-19T22:35:09.440Z,-0.21
2023-01-19T22:37:37.047Z,-0.23
2023-01-19T22:40:04.901Z,-0.23
2023-01-19T22:42:31.648Z,-0.24
2023-01-19T22:44:58.374Z,-0.27
2023-01-19T22:47:25.101Z,-0.32
2023-01-19T22:49:51.792Z,-0.28
2023-01-19T22:52:18.539Z,-0.26
2023-01-19T22:54:45.260Z,-0.25
2023-01-19T22:57:11.993Z,-0.30
2023-01-19T22:59:38.924Z,-0.29
2023-01-19T23:02:06.167Z,-0.32
2023-01-19T23:04:33.105Z,-0.35
2023-01-19T23:06:59.983Z,-0.36
2023-01-19T23:09:26.889Z,-0.39
2023-01-19T23:11:53.734Z,-0.38
2023-01-19T23:14:22.099Z,-0.34
2023-01-19T23:16:49.328Z,-0.32
2023-01-19T23:19:17.340Z,-0.31
2023-01-19T23:21:44.706Z,-0.30
2023-01-19T23:24:11.832Z,-0.36
2023-01-19T23:26:39.117Z,-0.47
2023-01-19T23:29:10.166Z,-0.47
2023-01-19T23:31:38.792Z,-0.39
2023-01-19T23:34:08.591Z,-0.40
2023-01-19T23:36:37.744Z,-0.38
2023-01-19T23:39:12.534Z,-0.37
2023-01-19T23:41:39.382Z,-0.35
2023-01-19T23:44:06.336Z,-0.31
2023-01-19T23:46:33.224Z,-0.32
2023-01-19T23:49:00.347Z,-0.28
2023-01-19T23:51:29.946Z,-0.40
2023-01-19T23:53:58.665Z,-0.47
2023-01-19T23:56:34.162Z,-0.45
2023-01-19T23:59:04.446Z,-0.45
